sensor_id;sensor_type;location;lat;lon;timestamp;temperature;humidity
75931;DHT22;64609;47.052;15.462;2023-04-08T00:01:43;12.10;45.40
75931;DHT22;64609;47.052;15.462;2023-04-08T00:04:08;12.00;45.20
75931;DHT22;64609;47.052;15.462;2023-04-08T00:06:34;12.00;45.30
75931;DHT22;64609;47.052;15.462;2023-04-08T00:09:00;12.00;45.30
75931;DHT22;64609;47.052;15.462;2023-04-08T00:11:26;12.10;45.40
75931;DHT22;64609;47.052;15.462;2023-04-08T00:13:51;12.00;45.10
75931;DHT22;64609;47.052;15.462;2023-04-08T00:16:17;12.00;45.00
75931;DHT22;64609;47.052;15.462;2023-04-08T00:18:43;11.90;45.00
75931;DHT22;64609;47.052;15.462;2023-04-08T00:21:08;11.90;45.10
75931;DHT22;64609;47.052;15.462;2023-04-08T00:23:34;11.80;45.10
75931;DHT22;64609;47.052;15.462;2023-04-08T00:25:59;11.90;45.20
75931;DHT22;64609;47.052;15.462;2023-04-08T00:28:25;11.90;45.20
75931;DHT22;64609;47.052;15.462;2023-04-08T00:30:52;11.90;45.00
75931;DHT22;64609;47.052;15.462;2023-04-08T00:33:17;11.90;45.30
75931;DHT22;64609;47.052;15.462;2023-04-08T00:35:43;11.90;44.90
75931;DHT22;64609;47.052;15.462;2023-04-08T00:38:09;11.90;45.10
75931;DHT22;64609;47.052;15.462;2023-04-08T00:40:34;11.90;45.10
75931;DHT22;64609;47.052;15.462;2023-04-08T00:43:00;11.90;45.10
75931;DHT22;64609;47.052;15.462;2023-04-08T00:45:26;11.90;45.20
75931;DHT22;64609;47.052;15.462;2023-04-08T00:47:51;11.90;45.30
75931;DHT22;64609;47.052;15.462;2023-04-08T00:50:17;11.80;45.00
75931;DHT22;64609;47.052;15.462;2023-04-08T00:52:43;11.80;45.10
75931;DHT22;64609;47.052;15.462;2023-04-08T00:55:09;11.80;45.10
75931;DHT22;64609;47.052;15.462;2023-04-08T00:57:35;11.80;45.10
75931;DHT22;64609;47.052;15.462;2023-04-08T01:00:01;11.80;45.20
75931;DHT22;64609;47.052;15.462;2023-04-08T01:02:53;11.80;45.20
75931;DHT22;64609;47.052;15.462;2023-04-08T01:05:28;11.80;45.50
75931;DHT22;64609;47.052;15.462;2023-04-08T01:07:55;11.80;45.60
75931;DHT22;64609;47.052;15.462;2023-04-08T01:10:29;11.80;45.80
75931;DHT22;64609;47.052;15.462;2023-04-08T01:12:57;11.80;45.70
75931;DHT22;64609;47.052;15.462;2023-04-08T01:15:25;11.90;45.80
75931;DHT22;64609;47.052;15.462;2023-04-08T01:17:53;11.90;45.80
75931;DHT22;64609;47.052;15.462;2023-04-08T01:20:23;11.80;45.70
75931;DHT22;64609;47.052;15.462;2023-04-08T01:25:23;11.80;45.90
75931;DHT22;64609;47.052;15.462;2023-04-08T01:27:52;11.90;45.90
75931;DHT22;64609;47.052;15.462;2023-04-08T01:30:22;11.80;45.90
75931;DHT22;64609;47.052;15.462;2023-04-08T01:32:49;11.80;46.10
75931;DHT22;64609;47.052;15.462;2023-04-08T01:35:17;11.90;46.00
75931;DHT22;64609;47.052;15.462;2023-04-08T01:37:44;11.90;45.90
75931;DHT22;64609;47.052;15.462;2023-04-08T01:40:11;11.80;45.80
75931;DHT22;64609;47.052;15.462;2023-04-08T01:42:37;11.80;45.90
75931;DHT22;64609;47.052;15.462;2023-04-08T01:45:05;11.80;46.20
75931;DHT22;64609;47.052;15.462;2023-04-08T01:47:31;11.80;46.10
75931;DHT22;64609;47.052;15.462;2023-04-08T01:49:58;11.80;46.00
75931;DHT22;64609;47.052;15.462;2023-04-08T01:52:26;11.70;46.10
75931;DHT22;64609;47.052;15.462;2023-04-08T01:54:53;11.70;46.50
75931;DHT22;64609;47.052;15.462;2023-04-08T01:57:23;11.80;46.50
75931;DHT22;64609;47.052;15.462;2023-04-08T01:59:52;11.70;46.50
75931;DHT22;64609;47.052;15.462;2023-04-08T02:02:21;11.70;46.60
75931;DHT22;64609;47.052;15.462;2023-04-08T02:04:49;11.80;46.90
75931;DHT22;64609;47.052;15.462;2023-04-08T02:07:16;11.80;46.70
75931;DHT22;64609;47.052;15.462;2023-04-08T02:09:42;11.80;46.70
75931;DHT22;64609;47.052;15.462;2023-04-08T02:12:07;11.80;46.80
75931;DHT22;64609;47.052;15.462;2023-04-08T02:14:33;11.70;46.90
75931;DHT22;64609;47.052;15.462;2023-04-08T02:17:08;11.60;47.10
75931;DHT22;64609;47.052;15.462;2023-04-08T02:19:58;11.60;47.20
75931;DHT22;64609;47.052;15.462;2023-04-08T02:22:28;11.70;47.30
75931;DHT22;64609;47.052;15.462;2023-04-08T02:24:56;11.70;47.10
75931;DHT22;64609;47.052;15.462;2023-04-08T02:27:24;11.80;47.20
75931;DHT22;64609;47.052;15.462;2023-04-08T02:29:53;11.80;47.30
75931;DHT22;64609;47.052;15.462;2023-04-08T02:32:20;11.80;47.50
75931;DHT22;64609;47.052;15.462;2023-04-08T02:34:48;11.80;47.60
75931;DHT22;64609;47.052;15.462;2023-04-08T02:37:14;11.80;47.50
75931;DHT22;64609;47.052;15.462;2023-04-08T02:39:40;11.80;47.30
75931;DHT22;64609;47.052;15.462;2023-04-08T02:42:05;11.80;47.30
75931;DHT22;64609;47.052;15.462;2023-04-08T02:44:31;11.80;47.70
75931;DHT22;64609;47.052;15.462;2023-04-08T02:46:57;11.80;47.70
75931;DHT22;64609;47.052;15.462;2023-04-08T02:49:22;11.80;47.90
75931;DHT22;64609;47.052;15.462;2023-04-08T02:51:48;11.70;47.70
75931;DHT22;64609;47.052;15.462;2023-04-08T02:54:13;11.70;48.30
75931;DHT22;64609;47.052;15.462;2023-04-08T02:56:39;11.70;48.20
75931;DHT22;64609;47.052;15.462;2023-04-08T02:59:05;11.70;48.30
75931;DHT22;64609;47.052;15.462;2023-04-08T03:01:31;11.60;48.50
75931;DHT22;64609;47.052;15.462;2023-04-08T03:03:56;11.60;49.00
75931;DHT22;64609;47.052;15.462;2023-04-08T03:06:22;11.60;49.20
75931;DHT22;64609;47.052;15.462;2023-04-08T03:08:48;11.60;49.30
75931;DHT22;64609;47.052;15.462;2023-04-08T03:11:13;11.60;49.90
75931;DHT22;64609;47.052;15.462;2023-04-08T03:13:39;11.60;50.20
75931;DHT22;64609;47.052;15.462;2023-04-08T03:16:05;11.60;50.70
75931;DHT22;64609;47.052;15.462;2023-04-08T03:18:31;11.60;51.30
75931;DHT22;64609;47.052;15.462;2023-04-08T03:20:56;11.60;51.10
75931;DHT22;64609;47.052;15.462;2023-04-08T03:23:22;11.60;51.60
75931;DHT22;64609;47.052;15.462;2023-04-08T03:25:48;11.60;51.10
75931;DHT22;64609;47.052;15.462;2023-04-08T03:28:13;11.60;51.30
75931;DHT22;64609;47.052;15.462;2023-04-08T03:30:39;11.60;51.10
75931;DHT22;64609;47.052;15.462;2023-04-08T03:33:04;11.60;51.70
75931;DHT22;64609;47.052;15.462;2023-04-08T03:35:32;11.60;51.40
75931;DHT22;64609;47.052;15.462;2023-04-08T03:37:58;11.60;51.30
75931;DHT22;64609;47.052;15.462;2023-04-08T03:40:23;11.60;51.30
75931;DHT22;64609;47.052;15.462;2023-04-08T03:42:49;11.50;51.00
75931;DHT22;64609;47.052;15.462;2023-04-08T03:45:15;11.40;50.90
75931;DHT22;64609;47.052;15.462;2023-04-08T03:47:40;11.20;50.70
75931;DHT22;64609;47.052;15.462;2023-04-08T03:50:06;11.10;51.10
75931;DHT22;64609;47.052;15.462;2023-04-08T03:52:32;11.10;51.80
75931;DHT22;64609;47.052;15.462;2023-04-08T03:54:58;11.20;52.30
75931;DHT22;64609;47.052;15.462;2023-04-08T03:57:23;11.20;52.30
75931;DHT22;64609;47.052;15.462;2023-04-08T03:59:49;11.20;53.00
75931;DHT22;64609;47.052;15.462;2023-04-08T04:02:14;11.30;53.20
75931;DHT22;64609;47.052;15.462;2023-04-08T04:04:40;11.30;53.30
75931;DHT22;64609;47.052;15.462;2023-04-08T04:07:06;11.30;53.40
75931;DHT22;64609;47.052;15.462;2023-04-08T04:09:31;11.30;53.50
75931;DHT22;64609;47.052;15.462;2023-04-08T04:11:57;11.30;53.60
75931;DHT22;64609;47.052;15.462;2023-04-08T04:14:22;11.20;53.50
75931;DHT22;64609;47.052;15.462;2023-04-08T04:16:48;11.20;53.60
75931;DHT22;64609;47.052;15.462;2023-04-08T04:19:14;11.10;53.90
75931;DHT22;64609;47.052;15.462;2023-04-08T04:21:39;11.20;54.10
75931;DHT22;64609;47.052;15.462;2023-04-08T04:24:05;11.20;54.80
75931;DHT22;64609;47.052;15.462;2023-04-08T04:26:31;11.20;55.00
75931;DHT22;64609;47.052;15.462;2023-04-08T04:28:56;11.10;54.90
75931;DHT22;64609;47.052;15.462;2023-04-08T04:31:23;11.00;55.00
75931;DHT22;64609;47.052;15.462;2023-04-08T04:33:52;11.00;55.90
75931;DHT22;64609;47.052;15.462;2023-04-08T04:36:17;11.00;56.00
75931;DHT22;64609;47.052;15.462;2023-04-08T04:38:44;11.00;56.50
75931;DHT22;64609;47.052;15.462;2023-04-08T04:41:10;11.00;56.70
75931;DHT22;64609;47.052;15.462;2023-04-08T04:43:35;11.00;56.60
75931;DHT22;64609;47.052;15.462;2023-04-08T04:46:01;10.90;56.60
75931;DHT22;64609;47.052;15.462;2023-04-08T04:48:28;10.90;57.10
75931;DHT22;64609;47.052;15.462;2023-04-08T04:50:55;10.90;57.90
75931;DHT22;64609;47.052;15.462;2023-04-08T04:53:20;10.90;58.20
75931;DHT22;64609;47.052;15.462;2023-04-08T04:55:46;10.90;58.50
75931;DHT22;64609;47.052;15.462;2023-04-08T04:58:12;10.80;58.30
75931;DHT22;64609;47.052;15.462;2023-04-08T05:00:37;10.70;58.70
75931;DHT22;64609;47.052;15.462;2023-04-08T05:03:03;10.70;58.90
75931;DHT22;64609;47.052;15.462;2023-04-08T05:05:28;10.60;59.40
75931;DHT22;64609;47.052;15.462;2023-04-08T05:07:54;10.60;59.20
75931;DHT22;64609;47.052;15.462;2023-04-08T05:10:20;10.60;59.60
75931;DHT22;64609;47.052;15.462;2023-04-08T05:12:46;10.50;59.60
75931;DHT22;64609;47.052;15.462;2023-04-08T05:15:11;10.40;59.90
75931;DHT22;64609;47.052;15.462;2023-04-08T05:17:37;10.30;60.10
75931;DHT22;64609;47.052;15.462;2023-04-08T05:20:03;10.30;60.40
75931;DHT22;64609;47.052;15.462;2023-04-08T05:22:29;10.40;60.60
75931;DHT22;64609;47.052;15.462;2023-04-08T05:24:55;10.40;60.60
75931;DHT22;64609;47.052;15.462;2023-04-08T05:27:20;10.40;60.80
75931;DHT22;64609;47.052;15.462;2023-04-08T05:29:46;10.30;60.80
75931;DHT22;64609;47.052;15.462;2023-04-08T05:32:12;10.30;61.20
75931;DHT22;64609;47.052;15.462;2023-04-08T05:34:38;10.30;61.40
75931;DHT22;64609;47.052;15.462;2023-04-08T05:37:03;10.40;61.80
75931;DHT22;64609;47.052;15.462;2023-04-08T05:39:29;10.20;61.70
75931;DHT22;64609;47.052;15.462;2023-04-08T05:41:55;10.20;62.10
75931;DHT22;64609;47.052;15.462;2023-04-08T05:44:21;10.30;62.10
75931;DHT22;64609;47.052;15.462;2023-04-08T05:46:46;10.30;62.10
75931;DHT22;64609;47.052;15.462;2023-04-08T05:49:12;10.30;62.20
75931;DHT22;64609;47.052;15.462;2023-04-08T05:51:38;10.30;62.30
75931;DHT22;64609;47.052;15.462;2023-04-08T05:54:04;10.40;62.40
75931;DHT22;64609;47.052;15.462;2023-04-08T05:56:29;10.50;62.20
75931;DHT22;64609;47.052;15.462;2023-04-08T05:58:56;10.50;62.40
75931;DHT22;64609;47.052;15.462;2023-04-08T06:01:22;10.60;62.40
75931;DHT22;64609;47.052;15.462;2023-04-08T06:03:48;10.60;62.20
75931;DHT22;64609;47.052;15.462;2023-04-08T06:06:14;10.70;61.90
75931;DHT22;64609;47.052;15.462;2023-04-08T06:08:39;10.70;62.00
75931;DHT22;64609;47.052;15.462;2023-04-08T06:11:06;10.80;61.70
75931;DHT22;64609;47.052;15.462;2023-04-08T06:13:31;10.80;61.50
75931;DHT22;64609;47.052;15.462;2023-04-08T06:15:57;10.80;61.50
75931;DHT22;64609;47.052;15.462;2023-04-08T06:18:23;10.80;61.60
75931;DHT22;64609;47.052;15.462;2023-04-08T06:20:49;10.90;61.80
75931;DHT22;64609;47.052;15.462;2023-04-08T06:23:15;10.80;61.90
75931;DHT22;64609;47.052;15.462;2023-04-08T06:25:40;10.90;62.10
75931;DHT22;64609;47.052;15.462;2023-04-08T06:28:06;10.90;62.20
75931;DHT22;64609;47.052;15.462;2023-04-08T06:30:32;10.90;62.10
75931;DHT22;64609;47.052;15.462;2023-04-08T06:32:57;10.90;62.00
75931;DHT22;64609;47.052;15.462;2023-04-08T06:35:23;10.90;62.00
75931;DHT22;64609;47.052;15.462;2023-04-08T06:37:49;10.90;61.70
75931;DHT22;64609;47.052;15.462;2023-04-08T06:40:14;10.90;61.40
75931;DHT22;64609;47.052;15.462;2023-04-08T06:42:40;10.90;62.00
75931;DHT22;64609;47.052;15.462;2023-04-08T06:45:09;10.90;61.20
75931;DHT22;64609;47.052;15.462;2023-04-08T06:47:35;10.80;61.00
75931;DHT22;64609;47.052;15.462;2023-04-08T06:50:00;10.90;61.60
75931;DHT22;64609;47.052;15.462;2023-04-08T06:52:26;10.90;62.00
75931;DHT22;64609;47.052;15.462;2023-04-08T06:54:52;10.90;61.10
75931;DHT22;64609;47.052;15.462;2023-04-08T06:57:17;10.90;60.70
75931;DHT22;64609;47.052;15.462;2023-04-08T06:59:43;10.90;61.00
75931;DHT22;64609;47.052;15.462;2023-04-08T07:02:08;10.90;61.30
75931;DHT22;64609;47.052;15.462;2023-04-08T07:04:34;10.90;61.00
75931;DHT22;64609;47.052;15.462;2023-04-08T07:07:00;10.90;61.00
75931;DHT22;64609;47.052;15.462;2023-04-08T07:09:25;10.90;61.10
75931;DHT22;64609;47.052;15.462;2023-04-08T07:11:51;10.90;61.00
75931;DHT22;64609;47.052;15.462;2023-04-08T07:14:16;10.80;60.80
75931;DHT22;64609;47.052;15.462;2023-04-08T07:16:42;10.90;60.90
75931;DHT22;64609;47.052;15.462;2023-04-08T07:19:08;11.00;61.10
75931;DHT22;64609;47.052;15.462;2023-04-08T07:21:33;11.00;60.60
75931;DHT22;64609;47.052;15.462;2023-04-08T07:23:59;11.00;60.50
75931;DHT22;64609;47.052;15.462;2023-04-08T07:26:25;10.80;60.30
75931;DHT22;64609;47.052;15.462;2023-04-08T07:28:51;10.80;60.80
75931;DHT22;64609;47.052;15.462;2023-04-08T07:31:17;10.90;60.90
75931;DHT22;64609;47.052;15.462;2023-04-08T07:33:44;10.90;60.60
75931;DHT22;64609;47.052;15.462;2023-04-08T07:36:11;10.90;60.60
75931;DHT22;64609;47.052;15.462;2023-04-08T07:38:37;10.90;61.10
75931;DHT22;64609;47.052;15.462;2023-04-08T07:41:03;10.90;62.00
75931;DHT22;64609;47.052;15.462;2023-04-08T07:43:32;10.90;62.20
75931;DHT22;64609;47.052;15.462;2023-04-08T07:46:02;11.00;62.40
75931;DHT22;64609;47.052;15.462;2023-04-08T07:48:29;11.10;62.00
75931;DHT22;64609;47.052;15.462;2023-04-08T07:50:55;11.20;61.50
75931;DHT22;64609;47.052;15.462;2023-04-08T07:53:21;11.20;61.50
75931;DHT22;64609;47.052;15.462;2023-04-08T07:55:48;11.20;61.60
75931;DHT22;64609;47.052;15.462;2023-04-08T07:58:14;11.20;61.20
75931;DHT22;64609;47.052;15.462;2023-04-08T08:00:40;11.20;61.40
75931;DHT22;64609;47.052;15.462;2023-04-08T08:03:05;11.30;61.40
75931;DHT22;64609;47.052;15.462;2023-04-08T08:05:31;11.30;60.90
75931;DHT22;64609;47.052;15.462;2023-04-08T08:07:57;11.40;60.70
75931;DHT22;64609;47.052;15.462;2023-04-08T08:10:22;11.40;60.90
75931;DHT22;64609;47.052;15.462;2023-04-08T08:12:48;11.40;60.70
75931;DHT22;64609;47.052;15.462;2023-04-08T08:15:13;11.40;60.60
75931;DHT22;64609;47.052;15.462;2023-04-08T08:17:39;11.40;60.30
75931;DHT22;64609;47.052;15.462;2023-04-08T08:20:05;11.50;60.20
75931;DHT22;64609;47.052;15.462;2023-04-08T08:22:31;11.50;61.00
75931;DHT22;64609;47.052;15.462;2023-04-08T08:24:57;11.50;60.20
75931;DHT22;64609;47.052;15.462;2023-04-08T08:27:23;11.50;59.80
75931;DHT22;64609;47.052;15.462;2023-04-08T08:29:49;11.50;59.50
75931;DHT22;64609;47.052;15.462;2023-04-08T08:32:15;11.50;59.80
75931;DHT22;64609;47.052;15.462;2023-04-08T08:34:41;11.50;60.00
75931;DHT22;64609;47.052;15.462;2023-04-08T08:37:07;11.50;60.40
75931;DHT22;64609;47.052;15.462;2023-04-08T08:39:32;11.50;60.60
75931;DHT22;64609;47.052;15.462;2023-04-08T08:41:58;11.50;60.20
75931;DHT22;64609;47.052;15.462;2023-04-08T08:44:24;11.40;60.60
75931;DHT22;64609;47.052;15.462;2023-04-08T08:46:50;11.40;60.70
75931;DHT22;64609;47.052;15.462;2023-04-08T08:49:15;11.50;60.70
75931;DHT22;64609;47.052;15.462;2023-04-08T08:51:43;11.60;59.30
75931;DHT22;64609;47.052;15.462;2023-04-08T08:54:10;11.60;58.90
75931;DHT22;64609;47.052;15.462;2023-04-08T08:56:36;11.70;58.60
75931;DHT22;64609;47.052;15.462;2023-04-08T08:59:01;11.70;58.20
75931;DHT22;64609;47.052;15.462;2023-04-08T09:01:31;11.60;58.10
75931;DHT22;64609;47.052;15.462;2023-04-08T09:04:09;11.50;58.60
75931;DHT22;64609;47.052;15.462;2023-04-08T09:06:36;11.50;59.40
75931;DHT22;64609;47.052;15.462;2023-04-08T09:09:02;11.60;59.40
75931;DHT22;64609;47.052;15.462;2023-04-08T09:11:30;11.70;59.20
75931;DHT22;64609;47.052;15.462;2023-04-08T09:13:56;11.70;58.90
75931;DHT22;64609;47.052;15.462;2023-04-08T09:16:22;11.70;58.60
75931;DHT22;64609;47.052;15.462;2023-04-08T09:18:48;11.70;58.90
75931;DHT22;64609;47.052;15.462;2023-04-08T09:21:15;11.70;59.10
75931;DHT22;64609;47.052;15.462;2023-04-08T09:23:49;11.70;59.30
75931;DHT22;64609;47.052;15.462;2023-04-08T09:26:17;11.70;59.20
75931;DHT22;64609;47.052;15.462;2023-04-08T09:29:00;11.80;58.80
75931;DHT22;64609;47.052;15.462;2023-04-08T09:31:31;11.80;58.60
75931;DHT22;64609;47.052;15.462;2023-04-08T09:33:59;11.80;58.40
75931;DHT22;64609;47.052;15.462;2023-04-08T09:36:25;11.90;58.00
75931;DHT22;64609;47.052;15.462;2023-04-08T09:38:52;11.90;58.40
75931;DHT22;64609;47.052;15.462;2023-04-08T09:41:19;12.00;58.60
75931;DHT22;64609;47.052;15.462;2023-04-08T09:43:53;12.00;58.60
75931;DHT22;64609;47.052;15.462;2023-04-08T09:46:31;12.10;58.20
75931;DHT22;64609;47.052;15.462;2023-04-08T09:49:00;12.20;58.10
75931;DHT22;64609;47.052;15.462;2023-04-08T09:51:31;12.20;57.60
75931;DHT22;64609;47.052;15.462;2023-04-08T09:54:02;12.20;57.30
75931;DHT22;64609;47.052;15.462;2023-04-08T09:56:38;12.10;58.00
75931;DHT22;64609;47.052;15.462;2023-04-08T09:59:13;12.00;57.80
75931;DHT22;64609;47.052;15.462;2023-04-08T10:01:43;11.90;58.40
75931;DHT22;64609;47.052;15.462;2023-04-08T10:04:13;11.90;58.00
75931;DHT22;64609;47.052;15.462;2023-04-08T10:06:40;11.80;58.50
75931;DHT22;64609;47.052;15.462;2023-04-08T10:09:06;11.80;58.80
75931;DHT22;64609;47.052;15.462;2023-04-08T10:11:33;11.80;58.20
75931;DHT22;64609;47.052;15.462;2023-04-08T10:14:01;11.70;58.90
75931;DHT22;64609;47.052;15.462;2023-04-08T10:16:27;11.80;59.20
75931;DHT22;64609;47.052;15.462;2023-04-08T10:18:55;11.90;59.10
75931;DHT22;64609;47.052;15.462;2023-04-08T10:21:40;11.90;59.00
75931;DHT22;64609;47.052;15.462;2023-04-08T10:24:13;11.80;58.80
75931;DHT22;64609;47.052;15.462;2023-04-08T10:26:41;11.80;59.20
75931;DHT22;64609;47.052;15.462;2023-04-08T10:31:42;12.00;58.70
75931;DHT22;64609;47.052;15.462;2023-04-08T10:34:26;11.90;58.50
75931;DHT22;64609;47.052;15.462;2023-04-08T10:36:54;11.90;58.70
75931;DHT22;64609;47.052;15.462;2023-04-08T10:39:20;12.00;59.30
75931;DHT22;64609;47.052;15.462;2023-04-08T10:41:50;12.10;59.50
75931;DHT22;64609;47.052;15.462;2023-04-08T10:44:22;12.20;58.50
75931;DHT22;64609;47.052;15.462;2023-04-08T10:46:50;12.30;59.10
75931;DHT22;64609;47.052;15.462;2023-04-08T10:49:16;12.50;58.20
75931;DHT22;64609;47.052;15.462;2023-04-08T10:51:43;12.50;58.10
75931;DHT22;64609;47.052;15.462;2023-04-08T10:54:11;12.60;57.40
75931;DHT22;64609;47.052;15.462;2023-04-08T10:56:48;12.40;56.90
75931;DHT22;64609;47.052;15.462;2023-04-08T10:59:15;12.30;57.90
75931;DHT22;64609;47.052;15.462;2023-04-08T11:01:42;12.20;57.40
75931;DHT22;64609;47.052;15.462;2023-04-08T11:04:16;12.10;57.20
75931;DHT22;64609;47.052;15.462;2023-04-08T11:06:45;12.00;57.30
75931;DHT22;64609;47.052;15.462;2023-04-08T11:09:12;12.10;57.40
75931;DHT22;64609;47.052;15.462;2023-04-08T11:11:41;12.00;57.80
75931;DHT22;64609;47.052;15.462;2023-04-08T11:14:07;12.10;58.50
75931;DHT22;64609;47.052;15.462;2023-04-08T11:16:33;11.90;58.50
75931;DHT22;64609;47.052;15.462;2023-04-08T11:19:02;11.90;58.90
75931;DHT22;64609;47.052;15.462;2023-04-08T11:21:38;11.80;58.90
75931;DHT22;64609;47.052;15.462;2023-04-08T11:24:11;11.90;58.40
75931;DHT22;64609;47.052;15.462;2023-04-08T11:26:37;11.90;58.70
75931;DHT22;64609;47.052;15.462;2023-04-08T11:29:04;12.20;59.60
75931;DHT22;64609;47.052;15.462;2023-04-08T11:31:31;12.20;57.70
75931;DHT22;64609;47.052;15.462;2023-04-08T11:33:57;12.40;58.60
75931;DHT22;64609;47.052;15.462;2023-04-08T11:36:23;12.60;59.00
75931;DHT22;64609;47.052;15.462;2023-04-08T11:38:48;12.80;58.20
75931;DHT22;64609;47.052;15.462;2023-04-08T11:41:14;13.00;58.20
75931;DHT22;64609;47.052;15.462;2023-04-08T11:43:53;13.10;57.50
75931;DHT22;64609;47.052;15.462;2023-04-08T11:46:19;13.20;57.30
75931;DHT22;64609;47.052;15.462;2023-04-08T11:49:07;13.00;56.60
75931;DHT22;64609;47.052;15.462;2023-04-08T11:51:37;12.90;56.20
75931;DHT22;64609;47.052;15.462;2023-04-08T11:54:26;12.90;56.80
75931;DHT22;64609;47.052;15.462;2023-04-08T11:56:53;12.80;57.10
75931;DHT22;64609;47.052;15.462;2023-04-08T11:59:19;12.80;56.70
75931;DHT22;64609;47.052;15.462;2023-04-08T12:01:44;12.80;56.90
75931;DHT22;64609;47.052;15.462;2023-04-08T12:04:10;12.80;56.70
75931;DHT22;64609;47.052;15.462;2023-04-08T12:06:36;12.80;57.20
75931;DHT22;64609;47.052;15.462;2023-04-08T12:09:02;12.80;57.10
75931;DHT22;64609;47.052;15.462;2023-04-08T12:11:28;12.60;56.50
75931;DHT22;64609;47.052;15.462;2023-04-08T12:13:53;12.50;56.80
75931;DHT22;64609;47.052;15.462;2023-04-08T12:16:19;12.60;57.50
75931;DHT22;64609;47.052;15.462;2023-04-08T12:18:45;12.60;57.30
75931;DHT22;64609;47.052;15.462;2023-04-08T12:21:11;12.70;57.60
75931;DHT22;64609;47.052;15.462;2023-04-08T12:23:37;12.70;57.90
75931;DHT22;64609;47.052;15.462;2023-04-08T12:26:02;12.80;57.20
75931;DHT22;64609;47.052;15.462;2023-04-08T12:28:28;12.60;56.10
75931;DHT22;64609;47.052;15.462;2023-04-08T12:30:54;12.50;56.90
75931;DHT22;64609;47.052;15.462;2023-04-08T12:33:20;12.40;57.40
75931;DHT22;64609;47.052;15.462;2023-04-08T12:35:46;12.50;57.30
75931;DHT22;64609;47.052;15.462;2023-04-08T12:38:11;12.40;56.90
75931;DHT22;64609;47.052;15.462;2023-04-08T12:40:37;12.20;57.50
75931;DHT22;64609;47.052;15.462;2023-04-08T12:43:03;12.30;57.60
75931;DHT22;64609;47.052;15.462;2023-04-08T12:45:28;12.30;57.40
75931;DHT22;64609;47.052;15.462;2023-04-08T12:47:54;12.30;57.70
75931;DHT22;64609;47.052;15.462;2023-04-08T12:50:20;12.30;58.20
75931;DHT22;64609;47.052;15.462;2023-04-08T12:52:45;12.40;58.10
75931;DHT22;64609;47.052;15.462;2023-04-08T12:55:11;12.50;57.70
75931;DHT22;64609;47.052;15.462;2023-04-08T12:57:37;12.40;57.60
75931;DHT22;64609;47.052;15.462;2023-04-08T13:00:03;12.50;57.80
75931;DHT22;64609;47.052;15.462;2023-04-08T13:02:28;12.60;58.00
75931;DHT22;64609;47.052;15.462;2023-04-08T13:04:54;12.50;58.00
75931;DHT22;64609;47.052;15.462;2023-04-08T13:07:20;12.50;58.80
75931;DHT22;64609;47.052;15.462;2023-04-08T13:09:45;12.50;58.90
75931;DHT22;64609;47.052;15.462;2023-04-08T13:12:11;12.40;59.00
75931;DHT22;64609;47.052;15.462;2023-04-08T13:14:37;12.30;59.10
75931;DHT22;64609;47.052;15.462;2023-04-08T13:17:03;12.20;59.50
75931;DHT22;64609;47.052;15.462;2023-04-08T13:19:29;12.00;59.90
75931;DHT22;64609;47.052;15.462;2023-04-08T13:21:55;12.10;61.00
75931;DHT22;64609;47.052;15.462;2023-04-08T13:24:21;12.10;61.60
75931;DHT22;64609;47.052;15.462;2023-04-08T13:26:46;12.30;60.90
75931;DHT22;64609;47.052;15.462;2023-04-08T13:29:12;12.20;61.10
75931;DHT22;64609;47.052;15.462;2023-04-08T13:31:38;12.30;61.00
75931;DHT22;64609;47.052;15.462;2023-04-08T13:34:03;12.20;60.80
75931;DHT22;64609;47.052;15.462;2023-04-08T13:36:29;12.20;60.80
75931;DHT22;64609;47.052;15.462;2023-04-08T13:38:55;12.10;61.00
75931;DHT22;64609;47.052;15.462;2023-04-08T13:41:21;12.10;61.10
75931;DHT22;64609;47.052;15.462;2023-04-08T13:43:47;12.10;61.00
75931;DHT22;64609;47.052;15.462;2023-04-08T13:46:13;12.00;61.00
75931;DHT22;64609;47.052;15.462;2023-04-08T13:48:38;12.00;61.00
75931;DHT22;64609;47.052;15.462;2023-04-08T13:51:04;12.10;61.10
75931;DHT22;64609;47.052;15.462;2023-04-08T13:53:30;12.10;61.10
75931;DHT22;64609;47.052;15.462;2023-04-08T13:55:55;12.10;61.10
75931;DHT22;64609;47.052;15.462;2023-04-08T13:58:23;12.00;61.20
75931;DHT22;64609;47.052;15.462;2023-04-08T14:00:50;11.90;61.80
75931;DHT22;64609;47.052;15.462;2023-04-08T14:03:16;11.90;62.30
75931;DHT22;64609;47.052;15.462;2023-04-08T14:05:41;11.90;62.30
75931;DHT22;64609;47.052;15.462;2023-04-08T14:08:07;12.00;62.20
75931;DHT22;64609;47.052;15.462;2023-04-08T14:10:33;11.90;62.20
75931;DHT22;64609;47.052;15.462;2023-04-08T14:12:58;12.00;62.20
75931;DHT22;64609;47.052;15.462;2023-04-08T14:15:24;12.00;62.00
75931;DHT22;64609;47.052;15.462;2023-04-08T14:17:50;11.90;62.10
75931;DHT22;64609;47.052;15.462;2023-04-08T14:20:16;12.00;62.20
75931;DHT22;64609;47.052;15.462;2023-04-08T14:22:42;12.00;62.30
75931;DHT22;64609;47.052;15.462;2023-04-08T14:25:08;12.00;62.30
75931;DHT22;64609;47.052;15.462;2023-04-08T14:27:33;11.90;62.40
75931;DHT22;64609;47.052;15.462;2023-04-08T14:29:59;12.00;62.20
75931;DHT22;64609;47.052;15.462;2023-04-08T14:32:25;12.00;61.90
75931;DHT22;64609;47.052;15.462;2023-04-08T14:34:50;11.90;61.80
75931;DHT22;64609;47.052;15.462;2023-04-08T14:37:16;12.00;61.70
75931;DHT22;64609;47.052;15.462;2023-04-08T14:39:45;12.00;62.00
75931;DHT22;64609;47.052;15.462;2023-04-08T14:42:11;11.90;61.90
75931;DHT22;64609;47.052;15.462;2023-04-08T14:44:36;11.90;62.00
75931;DHT22;64609;47.052;15.462;2023-04-08T14:47:02;11.80;61.90
75931;DHT22;64609;47.052;15.462;2023-04-08T14:49:28;11.80;62.70
75931;DHT22;64609;47.052;15.462;2023-04-08T14:51:53;11.80;62.60
75931;DHT22;64609;47.052;15.462;2023-04-08T14:54:19;11.90;62.50
75931;DHT22;64609;47.052;15.462;2023-04-08T14:56:45;11.80;62.40
75931;DHT22;64609;47.052;15.462;2023-04-08T14:59:11;11.80;62.40
75931;DHT22;64609;47.052;15.462;2023-04-08T15:01:36;11.70;62.50
75931;DHT22;64609;47.052;15.462;2023-04-08T15:04:02;11.70;62.80
75931;DHT22;64609;47.052;15.462;2023-04-08T15:06:28;11.70;62.50
75931;DHT22;64609;47.052;15.462;2023-04-08T15:08:53;11.70;62.80
75931;DHT22;64609;47.052;15.462;2023-04-08T15:11:19;11.70;62.60
75931;DHT22;64609;47.052;15.462;2023-04-08T15:13:46;11.70;62.40
75931;DHT22;64609;47.052;15.462;2023-04-08T15:16:12;11.70;62.50
75931;DHT22;64609;47.052;15.462;2023-04-08T15:18:37;11.70;62.80